| time (UTC) | temp C | wind direction | speed KPH | gust KPH | rain 1hr cm | rain 24hr cm | rain mn cm | humidity % | barometer mb |
| 20260509191527 | 31 | 15 | 4.8 | 8.0 | 0.00 | 0.00 | 0.00 | 67 | 1006.8 |
| 20260509190031 | 31 | 297 | 6.4 | 14.5 | 0.00 | 0.00 | 0.00 | 66 | 1006.9 |
| 20260509184529 | 31 | 304 | 1.6 | 4.8 | 0.00 | 0.00 | 0.00 | 67 | 1007.0 |
| 20260509183028 | 30 | 281 | 1.6 | 8.0 | 0.00 | 0.00 | 0.00 | 71 | 1007.3 |
| 20260509181518 | 29 | 321 | 3.2 | 11.3 | 0.00 | 0.00 | 0.00 | 74 | 1007.6 |
| 20260509180017 | 29 | 342 | 1.6 | 11.3 | 0.00 | 0.00 | 0.00 | 79 | 1007.9 |
| 20260509174508 | 28 | 258 | 1.6 | 9.7 | 0.00 | 0.00 | 0.00 | 80 | 1008.4 |
| 20260509173011 | 28 | 261 | 1.6 | 16.1 | 0.00 | 0.00 | 0.00 | 80 | 1008.5 |
| 20260509171507 | 27 | 196 | 1.6 | 9.7 | 0.00 | 0.00 | 0.00 | 81 | 1008.5 |
| 20260509170004 | 27 | 160 | 3.2 | 12.9 | 0.00 | 0.00 | 0.00 | 82 | 1008.6 |
| 20260509164503 | 27 | 267 | 0.0 | 1.6 | 0.00 | 0.00 | 0.00 | 83 | 1008.7 |
| 20260509163001 | 27 | 208 | 0.0 | 4.8 | 0.00 | 0.00 | 0.00 | 82 | 1008.5 |
| 20260509161559 | 27 | 261 | 0.0 | 3.2 | 0.00 | 0.00 | 0.00 | 85 | 1008.5 |
| 20260509161500 | 27 | 256 | 0.0 | 6.4 | 0.00 | 0.00 | 0.00 | 85 | 1008.5 |
| 20260509160055 | 27 | 206 | 0.0 | 1.6 | 0.00 | 0.00 | 0.00 | 87 | 1008.5 |
| 20260509154605 | 26 | 118 | 0.0 | 1.6 | 0.00 | 0.00 | 0.00 | 89 | 1008.5 |
| 20260509153049 | 25 | 98 | 0.0 | 0.0 | 0.00 | 0.00 | 0.00 | 89 | 1008.0 |
| 20260509151547 | 25 | 48 | 0.0 | 1.6 | 0.00 | 0.00 | 0.00 | 91 | 1008.5 |
| 20260509150050 | 25 | 85 | 0.0 | 0.0 | 0.00 | 0.00 | 0.00 | 93 | 1008.2 |
| 20260509144545 | 25 | 236 | 0.0 | 1.6 | 0.00 | 0.00 | 0.00 | 94 | 1008.4 |
| 20260509143048 | 24 | 220 | 0.0 | 1.6 | 0.00 | 0.00 | 0.00 | 95 | 1008.7 |
| 20260509141540 | 24 | 216 | 0.0 | 9.7 | 0.00 | 0.00 | 0.00 | 96 | 1008.6 |
| 20260509140038 | 24 | 201 | 3.2 | 8.0 | 0.00 | 0.00 | 0.00 | 96 | 1008.5 |
| 20260509134536 | 24 | 258 | 0.0 | 3.2 | 0.00 | 0.00 | 0.00 | 96 | 1008.1 |
| 20260509133034 | 24 | 206 | 0.0 | 6.4 | 0.00 | 0.00 | 0.00 | 96 | 1008.4 |
| 20260509131531 | 24 | 255 | 1.6 | 6.4 | 0.00 | 0.00 | 0.00 | 96 | 1008.6 |
| 20260509130031 | 23 | 204 | 0.0 | 4.8 | 0.00 | 0.00 | 0.00 | 96 | 1008.2 |
| 20260509124538 | 23 | 72 | 0.0 | 0.0 | 0.00 | 0.00 | 0.00 | 96 | 1008.5 |
| 20260509123026 | 23 | 72 | 0.0 | 0.0 | 0.00 | 0.00 | 0.00 | 96 | 1008.5 |
| 20260509121537 | 23 | 72 | 0.0 | 0.0 | 0.00 | 0.00 | 0.00 | 96 | 1008.3 |
| 20260509120022 | 23 | 72 | 0.0 | 0.0 | 0.00 | 0.00 | 0.00 | 96 | 1008.4 |
| 20260509114542 | 23 | 72 | 0.0 | 0.0 | 0.00 | 0.00 | 0.00 | 96 | 1008.3 |
| 20260509113021 | 23 | 72 | 0.0 | 0.0 | 0.00 | 0.00 | 0.00 | 96 | 1008.3 |
| 20260509111520 | 23 | 72 | 0.0 | 0.0 | 0.00 | 0.00 | 0.00 | 96 | 1008.3 |
| 20260509110021 | 23 | 72 | 0.0 | 0.0 | 0.00 | 0.00 | 0.00 | 96 | 1007.9 |
| 20260509104521 | 23 | 72 | 0.0 | 0.0 | 0.00 | 0.00 | 0.00 | 96 | 1007.8 |
| 20260509103019 | 23 | 72 | 0.0 | 0.0 | 0.00 | 0.00 | 0.00 | 96 | 1007.8 |
| 20260509101518 | 23 | 72 | 0.0 | 0.0 | 0.00 | 0.00 | 0.00 | 96 | 1007.7 |
| 20260509100018 | 23 | 72 | 0.0 | 0.0 | 0.00 | 0.00 | 0.00 | 96 | 1007.7 |
| 20260509094523 | 23 | 72 | 0.0 | 0.0 | 0.00 | 0.00 | 0.00 | 95 | 1007.5 |
| 20260509093017 | 23 | 72 | 0.0 | 0.0 | 0.00 | 0.00 | 0.00 | 96 | 1007.5 |
| 20260509091516 | 23 | 72 | 0.0 | 0.0 | 0.00 | 0.00 | 0.00 | 96 | 1007.2 |
| 20260509090041 | 23 | 72 | 0.0 | 0.0 | 0.00 | 0.00 | 0.00 | 95 | 1007.2 |
| 20260509084522 | 23 | 94 | 0.0 | 0.0 | 0.00 | 0.00 | 0.00 | 95 | 1007.3 |
| 20260509083034 | 23 | 178 | 0.0 | 0.0 | 0.00 | 0.00 | 0.00 | 95 | 1007.4 |
| 20260509081518 | 23 | 178 | 0.0 | 0.0 | 0.00 | 0.00 | 0.00 | 95 | 1007.5 |
| 20260509080012 | 23 | 178 | 0.0 | 1.6 | 0.00 | 0.00 | 0.00 | 95 | 1007.6 |
| 20260509074523 | 23 | 178 | 0.0 | 0.0 | 0.00 | 0.00 | 0.00 | 95 | 1007.9 |
| 20260509073008 | 23 | 178 | 0.0 | 0.0 | 0.00 | 0.00 | 0.00 | 95 | 1008.0 |
| 20260509071508 | 23 | 178 | 0.0 | 0.0 | 0.00 | 0.00 | 0.00 | 94 | 1008.1 |
| 20260509070006 | 23 | 178 | 0.0 | 0.0 | 0.00 | 0.00 | 0.00 | 94 | 1008.0 |
| 20260509064504 | 23 | 178 | 0.0 | 0.0 | 0.00 | 0.00 | 0.00 | 94 | 1007.8 |
| 20260509063003 | 23 | 178 | 0.0 | 1.6 | 0.00 | 0.00 | 0.00 | 94 | 1008.1 |
| 20260509061500 | 23 | 178 | 0.0 | 0.0 | 0.00 | 0.00 | 0.00 | 94 | 1008.2 |
| 20260509060059 | 23 | 178 | 0.0 | 0.0 | 0.00 | 0.00 | 0.00 | 94 | 1008.1 |
| 20260509054559 | 23 | 178 | 0.0 | 0.0 | 0.00 | 0.00 | 0.00 | 94 | 1008.0 |
| 20260509053056 | 23 | 178 | 0.0 | 0.0 | 0.00 | 0.00 | 0.00 | 94 | 1008.4 |
| 20260509051557 | 24 | 178 | 0.0 | 0.0 | 0.00 | 0.00 | 0.00 | 94 | 1008.2 |
| 20260509050100 | 24 | 182 | 0.0 | 1.6 | 0.00 | 0.00 | 0.00 | 94 | 1008.5 |
| 20260509044554 | 24 | 182 | 0.0 | 1.6 | 0.00 | 0.00 | 0.00 | 94 | 1008.6 |
| 20260509043054 | 24 | 98 | 0.0 | 1.6 | 0.00 | 0.00 | 0.00 | 94 | 1008.7 |
| 20260509041552 | 24 | 75 | 0.0 | 0.0 | 0.00 | 0.00 | 0.00 | 94 | 1008.6 |
| 20260509040050 | 24 | 75 | 0.0 | 4.8 | 0.00 | 0.00 | 0.00 | 94 | 1008.4 |
| 20260509034547 | 23 | 99 | 0.0 | 6.4 | 0.00 | 0.00 | 0.00 | 94 | 1008.1 |
| 20260509033058 | 23 | 89 | 1.6 | 9.7 | 0.00 | 0.00 | 0.00 | 94 | 1008.0 |
| 20260509031542 | 23 | 75 | 1.6 | 9.7 | 0.00 | 0.00 | 0.00 | 94 | 1008.1 |
| 20260509030042 | 23 | 79 | 0.0 | 9.7 | 0.00 | 0.00 | 0.00 | 94 | 1007.9 |
| 20260509024542 | 23 | 88 | 1.6 | 8.0 | 0.00 | 0.00 | 0.00 | 93 | 1007.8 |
| 20260509023041 | 23 | 84 | 1.6 | 8.0 | 0.00 | 0.00 | 0.00 | 93 | 1007.5 |
| 20260509021540 | 23 | 104 | 4.8 | 9.7 | 0.00 | 0.00 | 0.00 | 93 | 1007.6 |
| 20260509020038 | 23 | 105 | 0.0 | 11.3 | 0.00 | 0.00 | 0.00 | 93 | 1007.3 |
| 20260509014533 | 23 | 76 | 1.6 | 12.9 | 0.00 | 0.00 | 0.00 | 93 | 1007.1 |
| 20260509013035 | 23 | 94 | 4.8 | 12.9 | 0.00 | 0.00 | 0.00 | 93 | 1007.3 |
| 20260509011525 | 23 | 88 | 4.8 | 16.1 | 0.00 | 0.00 | 0.00 | 93 | 1007.3 |
| 20260509010020 | 23 | 136 | 1.6 | 11.3 | 0.00 | 0.00 | 0.00 | 92 | 1007.1 |
| 20260509004519 | 23 | 89 | 3.2 | 17.7 | 0.00 | 0.00 | 0.00 | 92 | 1007.2 |
| 20260509003018 | 23 | 102 | 4.8 | 14.5 | 0.00 | 0.00 | 0.00 | 92 | 1007.5 |
| 20260509001517 | 23 | 129 | 9.7 | 20.9 | 0.00 | 0.00 | 0.00 | 92 | 1006.7 |
| 20260509000033 | 23 | 101 | 6.4 | 19.3 | 0.00 | 0.00 | 0.00 | 91 | 1007.2 |
| 20260508234515 | 23 | 96 | 4.8 | 12.9 | 0.00 | 0.00 | 0.00 | 91 | 1007.7 |
| 20260508233015 | 23 | 70 | 6.4 | 14.5 | 0.00 | 0.00 | 0.00 | 91 | 1007.6 |
| 20260508231514 | 23 | 84 | 3.2 | 11.3 | 0.00 | 0.00 | 0.00 | 90 | 1007.5 |
| 20260508230011 | 23 | 77 | 4.8 | 14.5 | 0.00 | 0.00 | 0.00 | 90 | 1007.3 |
| 20260508224522 | 23 | 108 | 9.7 | 17.7 | 0.00 | 0.00 | 0.00 | 89 | 1007.1 |
| 20260508223005 | 23 | 81 | 1.6 | 11.3 | 0.00 | 0.00 | 0.00 | 89 | 1007.2 |
| 20260508221502 | 23 | 102 | 0.0 | 11.3 | 0.00 | 0.00 | 0.00 | 89 | 1007.5 |
| 20260508220058 | 23 | 90 | 3.2 | 12.9 | 0.00 | 0.00 | 0.00 | 89 | 1007.6 |
| 20260508214553 | 23 | 100 | 1.6 | 12.9 | 0.00 | 0.00 | 0.00 | 89 | 1007.7 |
| 20260508213048 | 23 | 95 | 3.2 | 11.3 | 0.00 | 0.00 | 0.00 | 88 | 1007.8 |
| 20260508211549 | 23 | 91 | 0.0 | 12.9 | 0.00 | 0.00 | 0.00 | 89 | 1007.8 |
| 20260508210044 | 22 | 85 | 1.6 | 6.4 | 0.00 | 0.00 | 0.00 | 89 | 1008.0 |
| 20260508204544 | 22 | 104 | 4.8 | 14.5 | 0.00 | 0.00 | 0.00 | 89 | 1007.8 |
| 20260508203041 | 22 | 69 | 8.0 | 16.1 | 0.00 | 0.00 | 0.00 | 90 | 1008.2 |
| 20260508201541 | 22 | 75 | 1.6 | 16.1 | 0.00 | 0.00 | 0.00 | 90 | 1008.7 |
| 20260508200045 | 22 | 84 | 6.4 | 16.1 | 0.00 | 0.00 | 0.00 | 91 | 1008.7 |
| 20260508194536 | 22 | 110 | 3.2 | 12.9 | 0.00 | 0.00 | 0.00 | 92 | 1008.9 |
| 20260508193043 | 21 | 101 | 11.3 | 20.9 | 0.00 | 0.00 | 0.00 | 93 | 1008.7 |